Check out our new PWSWeather beta!
PWSweather.com
Personal Weather Stations
Station Observations

YeovilGB

Lat: 50.949, Lon: -2.627

Elevation: 70

Station Type: Vantage Pro

http://www.yeovil-weather.me.uk/

High Low Average
Temperature 48.7°F9.3°C 43.4°F6.3°C 45.6°F7.6°C
Dew Point 45.6°F7.6°C 38.3°F3.5°C 41.2°F5.1°C
Winds 10.4 mph 16.7 kmh Calm Calm 4.0 mph ESE6.4 kmh ESE
Wind Gusts 18.4 mph29.6 kmh -- 8.0 mph12.9 kmh
Humidity 91% 76% 85%
Pressure 29.90 in1012.5 mb 29.65 in1004.1 mb -
Precipitation 0.00 in0.0 mm - -
Hour Temp Dew Point Humidity Winds Wind Gusts Pressure Precip Precip Rate Daily Precip Total
12:00 AM 48.7°F9.3°C 45.6°F7.6°C 89% 8.1 mph SE13.0 kmh SE 15.0 mph24.1 kmh 29.90 in1012.5 mb - 0.00 in0.0 mm 0.00 in0.0 mm
12:10 AM 48.5°F9.2°C 45.4°F7.4°C 89% 6.9 mph SE11.1 kmh SE 10.4 mph16.7 kmh 29.90 in1012.5 mb - 0.00 in0.0 mm 0.00 in0.0 mm
12:20 AM 48.3°F9.1°C 45.2°F7.3°C 89% 5.8 mph SSE9.3 kmh SSE 8.1 mph13.0 kmh 29.89 in1012.2 mb - 0.00 in0.0 mm 0.00 in0.0 mm
12:30 AM 48.1°F8.9°C 45.0°F7.2°C 89% 4.6 mph SE7.4 kmh SE 8.1 mph13.0 kmh 29.89 in1012.2 mb - 0.00 in0.0 mm 0.00 in0.0 mm
12:40 AM 47.9°F8.8°C 45.1°F7.3°C 90% 3.5 mph SE5.6 kmh SE 8.1 mph13.0 kmh 29.89 in1012.2 mb - 0.00 in0.0 mm 0.00 in0.0 mm
12:50 AM 47.9°F8.8°C 45.1°F7.3°C 90% 4.6 mph SE7.4 kmh SE 12.7 mph20.4 kmh 29.88 in1011.9 mb - 0.00 in0.0 mm 0.00 in0.0 mm
01:00 AM 47.8°F8.8°C 45.0°F7.2°C 90% 1.2 mph SE1.9 kmh SE 10.4 mph16.7 kmh 29.88 in1011.9 mb - 0.00 in0.0 mm 0.00 in0.0 mm
01:10 AM 47.8°F8.8°C 45.0°F7.2°C 90% 1.2 mph SSE1.9 kmh SSE 3.5 mph5.6 kmh 29.88 in1011.9 mb - 0.00 in0.0 mm 0.00 in0.0 mm
01:20 AM 47.7°F8.7°C 44.9°F7.2°C 90% 4.6 mph SE7.4 kmh SE 11.5 mph18.5 kmh 29.88 in1011.9 mb - 0.00 in0.0 mm 0.00 in0.0 mm
01:30 AM 47.7°F8.7°C 44.9°F7.2°C 90% 4.6 mph SE7.4 kmh SE 8.1 mph13.0 kmh 29.88 in1011.9 mb - 0.00 in0.0 mm 0.00 in0.0 mm
01:40 AM 47.6°F8.7°C 44.8°F7.1°C 90% 5.8 mph SE9.3 kmh SE 10.4 mph16.7 kmh 29.88 in1011.9 mb - 0.00 in0.0 mm 0.00 in0.0 mm
01:50 AM 47.6°F8.7°C 45.1°F7.3°C 91% Calm Calm 6.9 mph11.1 kmh 29.87 in1011.5 mb - 0.00 in0.0 mm 0.00 in0.0 mm
02:00 AM 47.5°F8.6°C 45.0°F7.2°C 91% 1.2 mph SE1.9 kmh SE 3.5 mph5.6 kmh 29.87 in1011.5 mb - 0.00 in0.0 mm 0.00 in0.0 mm
02:10 AM 47.4°F8.6°C 44.9°F7.2°C 91% Calm Calm -- 29.87 in1011.5 mb - 0.00 in0.0 mm 0.00 in0.0 mm
02:20 AM 47.4°F8.6°C 44.9°F7.2°C 91% 4.6 mph SSE7.4 kmh SSE 5.8 mph9.3 kmh 29.87 in1011.5 mb - 0.00 in0.0 mm 0.00 in0.0 mm
02:30 AM 47.7°F8.7°C 45.2°F7.3°C 91% 6.9 mph SE11.1 kmh SE 11.5 mph18.5 kmh 29.87 in1011.5 mb - 0.00 in0.0 mm 0.00 in0.0 mm
02:40 AM 47.9°F8.8°C 45.4°F7.4°C 91% 5.8 mph SSE9.3 kmh SSE 9.2 mph14.8 kmh 29.87 in1011.5 mb - 0.00 in0.0 mm 0.00 in0.0 mm
02:50 AM 48.2°F9.0°C 45.4°F7.4°C 90% 6.9 mph SE11.1 kmh SE 12.7 mph20.4 kmh 29.86 in1011.2 mb - 0.00 in0.0 mm 0.00 in0.0 mm
03:00 AM 48.4°F9.1°C 45.6°F7.6°C 90% 2.3 mph SSE3.7 kmh SSE 15.0 mph24.1 kmh 29.86 in1011.2 mb - 0.00 in0.0 mm 0.00 in0.0 mm
03:10 AM 48.3°F9.1°C 45.2°F7.3°C 89% 6.9 mph S11.1 kmh S 10.4 mph16.7 kmh 29.86 in1011.2 mb - 0.00 in0.0 mm 0.00 in0.0 mm
03:20 AM 48.3°F9.1°C 45.2°F7.3°C 89% 3.5 mph SSE5.6 kmh SSE 6.9 mph11.1 kmh 29.86 in1011.2 mb - 0.00 in0.0 mm 0.00 in0.0 mm
03:30 AM 48.1°F8.9°C 45.0°F7.2°C 89% 5.8 mph S9.3 kmh S 12.7 mph20.4 kmh 29.86 in1011.2 mb - 0.00 in0.0 mm 0.00 in0.0 mm
03:40 AM 48.0°F8.9°C 44.9°F7.2°C 89% 8.1 mph SE13.0 kmh SE 10.4 mph16.7 kmh 29.86 in1011.2 mb - 0.00 in0.0 mm 0.00 in0.0 mm
03:50 AM 47.8°F8.8°C 44.7°F7.1°C 89% 6.9 mph SE11.1 kmh SE 10.4 mph16.7 kmh 29.86 in1011.2 mb - 0.00 in0.0 mm 0.00 in0.0 mm
04:00 AM 47.6°F8.7°C 44.5°F6.9°C 89% 3.5 mph SSE5.6 kmh SSE 9.2 mph14.8 kmh 29.85 in1010.8 mb - 0.00 in0.0 mm 0.00 in0.0 mm
04:10 AM 47.6°F8.7°C 44.5°F6.9°C 89% 6.9 mph SSE11.1 kmh SSE 8.1 mph13.0 kmh 29.85 in1010.8 mb - 0.00 in0.0 mm 0.00 in0.0 mm
04:20 AM 47.6°F8.7°C 44.2°F6.8°C 88% 6.9 mph SE11.1 kmh SE 11.5 mph18.5 kmh 29.85 in1010.8 mb - 0.00 in0.0 mm 0.00 in0.0 mm
04:30 AM 47.5°F8.6°C 44.1°F6.7°C 88% 6.9 mph SSE11.1 kmh SSE 9.2 mph14.8 kmh 29.85 in1010.8 mb - 0.00 in0.0 mm 0.00 in0.0 mm
04:40 AM 47.4°F8.6°C 44.0°F6.7°C 88% 6.9 mph SSE11.1 kmh SSE 11.5 mph18.5 kmh 29.85 in1010.8 mb - 0.00 in0.0 mm 0.00 in0.0 mm
04:50 AM 47.3°F8.5°C 44.2°F6.8°C 89% 5.8 mph SE9.3 kmh SE 9.2 mph14.8 kmh 29.84 in1010.5 mb - 0.00 in0.0 mm 0.00 in0.0 mm
05:00 AM 47.2°F8.4°C 44.1°F6.7°C 89% 6.9 mph SSE11.1 kmh SSE 9.2 mph14.8 kmh 29.84 in1010.5 mb - 0.00 in0.0 mm 0.00 in0.0 mm
05:10 AM 47.1°F8.4°C 44.0°F6.7°C 89% 10.4 mph SSE16.7 kmh SSE 13.8 mph22.2 kmh 29.84 in1010.5 mb - 0.00 in0.0 mm 0.00 in0.0 mm
05:20 AM 47.0°F8.3°C 43.9°F6.6°C 89% 9.2 mph SE14.8 kmh SE 11.5 mph18.5 kmh 29.84 in1010.5 mb - 0.00 in0.0 mm 0.00 in0.0 mm
05:30 AM 47.0°F8.3°C 43.6°F6.4°C 88% 5.8 mph SSE9.3 kmh SSE 11.5 mph18.5 kmh 29.84 in1010.5 mb - 0.00 in0.0 mm 0.00 in0.0 mm
05:40 AM 46.9°F8.3°C 43.5°F6.4°C 88% 3.5 mph SSE5.6 kmh SSE 4.6 mph7.4 kmh 29.84 in1010.5 mb - 0.00 in0.0 mm 0.00 in0.0 mm
05:50 AM 46.8°F8.2°C 43.4°F6.3°C 88% 3.5 mph SSE5.6 kmh SSE 8.1 mph13.0 kmh 29.84 in1010.5 mb - 0.00 in0.0 mm 0.00 in0.0 mm
06:00 AM 46.9°F8.3°C 43.5°F6.4°C 88% 5.8 mph SE9.3 kmh SE 9.2 mph14.8 kmh 29.84 in1010.5 mb - 0.00 in0.0 mm 0.00 in0.0 mm
06:10 AM 46.9°F8.3°C 43.5°F6.4°C 88% 5.8 mph SE9.3 kmh SE 10.4 mph16.7 kmh 29.84 in1010.5 mb - 0.00 in0.0 mm 0.00 in0.0 mm
06:20 AM 46.9°F8.3°C 43.5°F6.4°C 88% Calm Calm 6.9 mph11.1 kmh 29.84 in1010.5 mb - 0.00 in0.0 mm 0.00 in0.0 mm
06:30 AM 46.8°F8.2°C 43.4°F6.3°C 88% 5.8 mph SE9.3 kmh SE 6.9 mph11.1 kmh 29.84 in1010.5 mb - 0.00 in0.0 mm 0.00 in0.0 mm
06:40 AM 46.8°F8.2°C 43.4°F6.3°C 88% 1.2 mph SE1.9 kmh SE 8.1 mph13.0 kmh 29.84 in1010.5 mb - 0.00 in0.0 mm 0.00 in0.0 mm
06:50 AM 46.9°F8.3°C 43.5°F6.4°C 88% 1.2 mph SE1.9 kmh SE 4.6 mph7.4 kmh 29.84 in1010.5 mb - 0.00 in0.0 mm 0.00 in0.0 mm
07:00 AM 46.8°F8.2°C 43.5°F6.4°C 88% 3.5 mph SE5.6 kmh SE 8.1 mph13.0 kmh 29.84 in1010.5 mb - 0.00 in0.0 mm 0.00 in0.0 mm
07:10 AM 46.8°F8.2°C 43.4°F6.3°C 88% 2.3 mph E3.7 kmh E 5.8 mph9.3 kmh 29.84 in1010.5 mb - 0.00 in0.0 mm 0.00 in0.0 mm
07:20 AM 46.7°F8.2°C 43.3°F6.3°C 88% 4.6 mph SE7.4 kmh SE 5.8 mph9.3 kmh 29.84 in1010.5 mb - 0.00 in0.0 mm 0.00 in0.0 mm
07:30 AM 46.3°F7.9°C 42.6°F5.9°C 87% 2.3 mph ESE3.7 kmh ESE 3.5 mph5.6 kmh 29.84 in1010.5 mb - 0.00 in0.0 mm 0.00 in0.0 mm
07:40 AM 45.8°F7.7°C 42.2°F5.7°C 87% 2.3 mph ESE3.7 kmh ESE 5.8 mph9.3 kmh 29.84 in1010.5 mb - 0.00 in0.0 mm 0.00 in0.0 mm
07:50 AM 45.3°F7.4°C 41.7°F5.4°C 87% 4.6 mph SE7.4 kmh SE 9.2 mph14.8 kmh 29.84 in1010.5 mb - 0.00 in0.0 mm 0.00 in0.0 mm
08:00 AM 45.0°F7.2°C 41.4°F5.2°C 87% 1.2 mph ESE1.9 kmh ESE 5.8 mph9.3 kmh 29.84 in1010.5 mb - 0.00 in0.0 mm 0.00 in0.0 mm
08:10 AM 44.7°F7.1°C 40.8°F4.9°C 86% 2.3 mph SE3.7 kmh SE 8.1 mph13.0 kmh 29.85 in1010.8 mb - 0.00 in0.0 mm 0.00 in0.0 mm
08:20 AM 44.5°F6.9°C 40.6°F4.8°C 86% 4.6 mph SE7.4 kmh SE 10.4 mph16.7 kmh 29.85 in1010.8 mb - 0.00 in0.0 mm 0.00 in0.0 mm
08:30 AM 44.3°F6.8°C 40.4°F4.7°C 86% 2.3 mph SE3.7 kmh SE 6.9 mph11.1 kmh 29.85 in1010.8 mb - 0.00 in0.0 mm 0.00 in0.0 mm
08:40 AM 44.3°F6.8°C 40.4°F4.7°C 86% 3.5 mph ESE5.6 kmh ESE 5.8 mph9.3 kmh 29.85 in1010.8 mb - 0.00 in0.0 mm 0.00 in0.0 mm
08:50 AM 44.2°F6.8°C 40.3°F4.6°C 86% 3.5 mph SE5.6 kmh SE 10.4 mph16.7 kmh 29.85 in1010.8 mb - 0.00 in0.0 mm 0.00 in0.0 mm
09:00 AM 44.2°F6.8°C 40.0°F4.4°C 85% 6.9 mph SE11.1 kmh SE 11.5 mph18.5 kmh 29.84 in1010.5 mb - 0.00 in0.0 mm 0.00 in0.0 mm
09:10 AM 44.2°F6.8°C 40.3°F4.6°C 86% 5.8 mph SE9.3 kmh SE 10.4 mph16.7 kmh 29.84 in1010.5 mb - 0.00 in0.0 mm 0.00 in0.0 mm
09:20 AM 44.3°F6.8°C 40.1°F4.5°C 85% 1.2 mph SE1.9 kmh SE 9.2 mph14.8 kmh 29.84 in1010.5 mb - 0.00 in0.0 mm 0.00 in0.0 mm
09:30 AM 44.4°F6.9°C 39.6°F4.2°C 83% 6.9 mph SE11.1 kmh SE 9.2 mph14.8 kmh 29.84 in1010.5 mb - 0.00 in0.0 mm 0.00 in0.0 mm
09:40 AM 44.5°F6.9°C 39.7°F4.3°C 83% 8.1 mph SE13.0 kmh SE 13.8 mph22.2 kmh 29.84 in1010.5 mb - 0.00 in0.0 mm 0.00 in0.0 mm
09:50 AM 44.8°F7.1°C 39.6°F4.2°C 82% 5.8 mph SE9.3 kmh SE 11.5 mph18.5 kmh 29.84 in1010.5 mb - 0.00 in0.0 mm 0.00 in0.0 mm
10:00 AM 45.1°F7.3°C 39.6°F4.2°C 81% 4.6 mph SE7.4 kmh SE 5.8 mph9.3 kmh 29.84 in1010.5 mb - 0.00 in0.0 mm 0.00 in0.0 mm
10:10 AM 45.2°F7.3°C 39.4°F4.1°C 80% 4.6 mph SE7.4 kmh SE 9.2 mph14.8 kmh 29.84 in1010.5 mb - 0.00 in0.0 mm 0.00 in0.0 mm
10:20 AM 45.2°F7.3°C 39.7°F4.3°C 81% 4.6 mph SE7.4 kmh SE 9.2 mph14.8 kmh 29.83 in1010.2 mb - 0.00 in0.0 mm 0.00 in0.0 mm
10:30 AM 45.2°F7.3°C 39.7°F4.3°C 81% 6.9 mph SE11.1 kmh SE 10.4 mph16.7 kmh 29.83 in1010.2 mb - 0.00 in0.0 mm 0.00 in0.0 mm
10:40 AM 45.4°F7.4°C 39.6°F4.2°C 80% 3.5 mph ESE5.6 kmh ESE 5.8 mph9.3 kmh 29.83 in1010.2 mb - 0.00 in0.0 mm 0.00 in0.0 mm
10:50 AM 45.5°F7.5°C 39.4°F4.1°C 79% 5.8 mph E9.3 kmh E 11.5 mph18.5 kmh 29.82 in1009.8 mb - 0.00 in0.0 mm 0.00 in0.0 mm
11:00 AM 45.7°F7.6°C 39.2°F4.0°C 78% 8.1 mph SE13.0 kmh SE 16.1 mph25.9 kmh 29.82 in1009.8 mb - 0.00 in0.0 mm 0.00 in0.0 mm
11:10 AM 46.0°F7.8°C 39.5°F4.2°C 78% 6.9 mph SE11.1 kmh SE 11.5 mph18.5 kmh 29.82 in1009.8 mb - 0.00 in0.0 mm 0.00 in0.0 mm
11:20 AM 45.9°F7.7°C 39.1°F3.9°C 77% 3.5 mph SE5.6 kmh SE 15.0 mph24.1 kmh 29.82 in1009.8 mb - 0.00 in0.0 mm 0.00 in0.0 mm
11:30 AM 46.0°F7.8°C 39.2°F4.0°C 77% 6.9 mph ESE11.1 kmh ESE 12.7 mph20.4 kmh 29.82 in1009.8 mb - 0.00 in0.0 mm 0.00 in0.0 mm
11:40 AM 45.9°F7.7°C 39.1°F3.9°C 77% 10.4 mph ESE16.7 kmh ESE 13.8 mph22.2 kmh 29.82 in1009.8 mb - 0.00 in0.0 mm 0.00 in0.0 mm
11:50 AM 45.9°F7.7°C 39.1°F3.9°C 77% 5.8 mph ESE9.3 kmh ESE 11.5 mph18.5 kmh 29.81 in1009.5 mb - 0.00 in0.0 mm 0.00 in0.0 mm
12:00 PM 45.8°F7.7°C 39.0°F3.9°C 77% 4.6 mph SSE7.4 kmh SSE 8.1 mph13.0 kmh 29.81 in1009.5 mb - 0.00 in0.0 mm 0.00 in0.0 mm
12:10 PM 45.8°F7.7°C 38.7°F3.7°C 76% 4.6 mph SE7.4 kmh SE 10.4 mph16.7 kmh 29.80 in1009.1 mb - 0.00 in0.0 mm 0.00 in0.0 mm
12:20 PM 45.8°F7.7°C 38.7°F3.7°C 76% 8.1 mph SE13.0 kmh SE 11.5 mph18.5 kmh 29.80 in1009.1 mb - 0.00 in0.0 mm 0.00 in0.0 mm
12:30 PM 45.9°F7.7°C 39.4°F4.1°C 78% 4.6 mph SE7.4 kmh SE 11.5 mph18.5 kmh 29.80 in1009.1 mb - 0.00 in0.0 mm 0.00 in0.0 mm
12:40 PM 45.8°F7.7°C 39.3°F4.1°C 78% 5.8 mph ESE9.3 kmh ESE 9.2 mph14.8 kmh 29.79 in1008.8 mb - 0.00 in0.0 mm 0.00 in0.0 mm
12:50 PM 45.6°F7.6°C 38.8°F3.8°C 77% 5.8 mph SE9.3 kmh SE 9.2 mph14.8 kmh 29.79 in1008.8 mb - 0.00 in0.0 mm 0.00 in0.0 mm
01:00 PM 45.6°F7.6°C 38.8°F3.8°C 77% 6.9 mph ESE11.1 kmh ESE 11.5 mph18.5 kmh 29.79 in1008.8 mb - 0.00 in0.0 mm 0.00 in0.0 mm
01:10 PM 45.5°F7.5°C 38.7°F3.7°C 77% 6.9 mph SE11.1 kmh SE 11.5 mph18.5 kmh 29.78 in1008.5 mb - 0.00 in0.0 mm 0.00 in0.0 mm
01:20 PM 45.5°F7.5°C 38.3°F3.5°C 76% 5.8 mph ESE9.3 kmh ESE 18.4 mph29.6 kmh 29.77 in1008.1 mb - 0.00 in0.0 mm 0.00 in0.0 mm
01:30 PM 45.5°F7.5°C 38.4°F3.6°C 76% 4.6 mph E7.4 kmh E 11.5 mph18.5 kmh 29.77 in1008.1 mb - 0.00 in0.0 mm 0.00 in0.0 mm
01:40 PM 45.6°F7.6°C 38.5°F3.6°C 76% 3.5 mph SE5.6 kmh SE 9.2 mph14.8 kmh 29.75 in1007.5 mb - 0.00 in0.0 mm 0.00 in0.0 mm
01:50 PM 45.8°F7.7°C 38.7°F3.7°C 76% 3.5 mph E5.6 kmh E 12.7 mph20.4 kmh 29.76 in1007.8 mb - 0.00 in0.0 mm 0.00 in0.0 mm
02:00 PM 45.8°F7.7°C 38.6°F3.7°C 76% 6.9 mph SE11.1 kmh SE 11.5 mph18.5 kmh 29.75 in1007.5 mb - 0.00 in0.0 mm 0.00 in0.0 mm
02:10 PM 45.6°F7.6°C 38.8°F3.8°C 77% 3.5 mph SE5.6 kmh SE 6.9 mph11.1 kmh 29.75 in1007.5 mb - 0.00 in0.0 mm 0.00 in0.0 mm
02:20 PM 45.5°F7.5°C 38.7°F3.7°C 77% 6.9 mph ESE11.1 kmh ESE 13.8 mph22.2 kmh 29.75 in1007.5 mb - 0.00 in0.0 mm 0.00 in0.0 mm
02:30 PM 45.4°F7.4°C 38.9°F3.8°C 78% 2.3 mph ESE3.7 kmh ESE 5.8 mph9.3 kmh 29.75 in1007.5 mb - 0.00 in0.0 mm 0.00 in0.0 mm
02:40 PM 45.4°F7.4°C 38.9°F3.8°C 78% 3.5 mph E5.6 kmh E 10.4 mph16.7 kmh 29.74 in1007.1 mb - 0.00 in0.0 mm 0.00 in0.0 mm
02:50 PM 45.3°F7.4°C 38.8°F3.8°C 78% 6.9 mph ESE11.1 kmh ESE 10.4 mph16.7 kmh 29.73 in1006.8 mb - 0.00 in0.0 mm 0.00 in0.0 mm
03:00 PM 45.3°F7.4°C 39.2°F4.0°C 79% 6.9 mph ESE11.1 kmh ESE 11.5 mph18.5 kmh 29.73 in1006.8 mb - 0.00 in0.0 mm 0.00 in0.0 mm
03:10 PM 45.2°F7.3°C 39.1°F3.9°C 79% 8.1 mph ESE13.0 kmh ESE 11.5 mph18.5 kmh 29.73 in1006.8 mb - 0.00 in0.0 mm 0.00 in0.0 mm
03:20 PM 45.2°F7.3°C 39.1°F3.9°C 79% 5.8 mph ESE9.3 kmh ESE 11.5 mph18.5 kmh 29.74 in1007.1 mb - 0.00 in0.0 mm 0.00 in0.0 mm
03:30 PM 45.1°F7.3°C 39.0°F3.9°C 79% 2.3 mph E3.7 kmh E 5.8 mph9.3 kmh 29.73 in1006.8 mb - 0.00 in0.0 mm 0.00 in0.0 mm
03:40 PM 45.1°F7.3°C 39.0°F3.9°C 79% 3.5 mph E5.6 kmh E 5.8 mph9.3 kmh 29.73 in1006.8 mb - 0.00 in0.0 mm 0.00 in0.0 mm
03:50 PM 45.1°F7.3°C 39.0°F3.9°C 79% 3.5 mph E5.6 kmh E 9.2 mph14.8 kmh 29.73 in1006.8 mb - 0.00 in0.0 mm 0.00 in0.0 mm
04:00 PM 45.1°F7.3°C 39.3°F4.1°C 80% 2.3 mph ESE3.7 kmh ESE 9.2 mph14.8 kmh 29.73 in1006.8 mb - 0.00 in0.0 mm 0.00 in0.0 mm
04:10 PM 45.1°F7.3°C 39.3°F4.1°C 80% 2.3 mph E3.7 kmh E 6.9 mph11.1 kmh 29.72 in1006.4 mb - 0.00 in0.0 mm 0.00 in0.0 mm
04:20 PM 45.0°F7.2°C 39.2°F4.0°C 80% 4.6 mph E7.4 kmh E 10.4 mph16.7 kmh 29.71 in1006.1 mb - 0.00 in0.0 mm 0.00 in0.0 mm
04:30 PM 44.9°F7.2°C 39.2°F4.0°C 80% 3.5 mph E5.6 kmh E 3.5 mph5.6 kmh 29.71 in1006.1 mb - 0.00 in0.0 mm 0.00 in0.0 mm
04:40 PM 44.8°F7.1°C 39.0°F3.9°C 80% 1.2 mph E1.9 kmh E 4.6 mph7.4 kmh 29.71 in1006.1 mb - 0.00 in0.0 mm 0.00 in0.0 mm
04:50 PM 44.5°F6.9°C 39.0°F3.9°C 81% 2.3 mph ESE3.7 kmh ESE 8.1 mph13.0 kmh 29.71 in1006.1 mb - 0.00 in0.0 mm 0.00 in0.0 mm
05:00 PM 44.2°F6.8°C 39.1°F3.9°C 82% 3.5 mph E5.6 kmh E 9.2 mph14.8 kmh 29.71 in1006.1 mb - 0.00 in0.0 mm 0.00 in0.0 mm
05:10 PM 44.0°F6.7°C 38.9°F3.8°C 82% 4.6 mph E7.4 kmh E 5.8 mph9.3 kmh 29.71 in1006.1 mb - 0.00 in0.0 mm 0.00 in0.0 mm
05:20 PM 43.9°F6.6°C 39.1°F3.9°C 83% 3.5 mph ESE5.6 kmh ESE 10.4 mph16.7 kmh 29.71 in1006.1 mb - 0.00 in0.0 mm 0.00 in0.0 mm
05:30 PM 44.0°F6.7°C 39.2°F4.0°C 83% 2.3 mph E3.7 kmh E 3.5 mph5.6 kmh 29.71 in1006.1 mb - 0.00 in0.0 mm 0.00 in0.0 mm
05:40 PM 44.0°F6.7°C 39.2°F4.0°C 83% 1.2 mph E1.9 kmh E 5.8 mph9.3 kmh 29.71 in1006.1 mb - 0.00 in0.0 mm 0.00 in0.0 mm
05:50 PM 44.0°F6.7°C 39.2°F4.0°C 83% 4.6 mph ESE7.4 kmh ESE 10.4 mph16.7 kmh 29.70 in1005.8 mb - 0.00 in0.0 mm 0.00 in0.0 mm
06:00 PM 44.1°F6.7°C 39.3°F4.1°C 83% 3.5 mph E5.6 kmh E 5.8 mph9.3 kmh 29.70 in1005.8 mb - 0.00 in0.0 mm 0.00 in0.0 mm
06:10 PM 44.2°F6.8°C 39.6°F4.2°C 84% 5.8 mph E9.3 kmh E 10.4 mph16.7 kmh 29.70 in1005.8 mb - 0.00 in0.0 mm 0.00 in0.0 mm
06:20 PM 44.1°F6.7°C 39.6°F4.2°C 84% 2.3 mph ESE3.7 kmh ESE 5.8 mph9.3 kmh 29.70 in1005.8 mb - 0.00 in0.0 mm 0.00 in0.0 mm
06:30 PM 44.0°F6.7°C 39.5°F4.2°C 84% 2.3 mph E3.7 kmh E 3.5 mph5.6 kmh 29.70 in1005.8 mb - 0.00 in0.0 mm 0.00 in0.0 mm
06:40 PM 43.9°F6.6°C 39.7°F4.3°C 85% 3.5 mph E5.6 kmh E 10.4 mph16.7 kmh 29.70 in1005.8 mb - 0.00 in0.0 mm 0.00 in0.0 mm
06:50 PM 43.8°F6.6°C 39.6°F4.2°C 85% 2.3 mph E3.7 kmh E 6.9 mph11.1 kmh 29.70 in1005.8 mb - 0.00 in0.0 mm 0.00 in0.0 mm
07:00 PM 43.6°F6.4°C 39.4°F4.1°C 85% 4.6 mph E7.4 kmh E 8.1 mph13.0 kmh 29.70 in1005.8 mb - 0.00 in0.0 mm 0.00 in0.0 mm
07:10 PM 43.6°F6.4°C 39.7°F4.3°C 86% 2.3 mph ESE3.7 kmh ESE 9.2 mph14.8 kmh 29.70 in1005.8 mb - 0.00 in0.0 mm 0.00 in0.0 mm
07:20 PM 43.5°F6.4°C 39.6°F4.2°C 86% 3.5 mph ESE5.6 kmh ESE 4.6 mph7.4 kmh 29.69 in1005.4 mb - 0.00 in0.0 mm 0.00 in0.0 mm
07:30 PM 43.4°F6.3°C 39.8°F4.3°C 87% 4.6 mph E7.4 kmh E 15.0 mph24.1 kmh 29.69 in1005.4 mb - 0.00 in0.0 mm 0.00 in0.0 mm
07:40 PM 43.5°F6.4°C 39.9°F4.4°C 87% 1.2 mph ESE1.9 kmh ESE 3.5 mph5.6 kmh 29.69 in1005.4 mb - 0.00 in0.0 mm 0.00 in0.0 mm
07:50 PM 43.5°F6.4°C 39.9°F4.4°C 87% 3.5 mph ESE5.6 kmh ESE 5.8 mph9.3 kmh 29.69 in1005.4 mb - 0.00 in0.0 mm 0.00 in0.0 mm
08:00 PM 43.7°F6.5°C 40.1°F4.5°C 87% 3.5 mph SE5.6 kmh SE 8.1 mph13.0 kmh 29.69 in1005.4 mb - 0.00 in0.0 mm 0.00 in0.0 mm
08:10 PM 43.7°F6.5°C 39.8°F4.3°C 86% 2.3 mph E3.7 kmh E 9.2 mph14.8 kmh 29.69 in1005.4 mb - 0.00 in0.0 mm 0.00 in0.0 mm
08:30 PM 43.9°F6.6°C 40.0°F4.4°C 86% 2.3 mph ESE3.7 kmh ESE 10.4 mph16.7 kmh 29.68 in1005.1 mb - 0.00 in0.0 mm 0.00 in0.0 mm
08:40 PM 43.9°F6.6°C 40.0°F4.4°C 86% 1.2 mph SE1.9 kmh SE 1.2 mph1.9 kmh 29.68 in1005.1 mb - 0.00 in0.0 mm 0.00 in0.0 mm
08:50 PM 44.0°F6.7°C 40.1°F4.5°C 86% 3.5 mph E5.6 kmh E 6.9 mph11.1 kmh 29.68 in1005.1 mb - 0.00 in0.0 mm 0.00 in0.0 mm
09:00 PM 44.1°F6.7°C 40.2°F4.6°C 86% 2.3 mph E3.7 kmh E 2.3 mph3.7 kmh 29.68 in1005.1 mb - 0.00 in0.0 mm 0.00 in0.0 mm
09:10 PM 44.0°F6.7°C 40.1°F4.5°C 86% 2.3 mph E3.7 kmh E 8.1 mph13.0 kmh 29.67 in1004.7 mb - 0.00 in0.0 mm 0.00 in0.0 mm
09:20 PM 44.0°F6.7°C 40.4°F4.7°C 87% 2.3 mph ENE3.7 kmh ENE 9.2 mph14.8 kmh 29.67 in1004.7 mb - 0.00 in0.0 mm 0.00 in0.0 mm
09:30 PM 44.1°F6.7°C 40.5°F4.7°C 87% 1.2 mph E1.9 kmh E 8.1 mph13.0 kmh 29.67 in1004.7 mb - 0.00 in0.0 mm 0.00 in0.0 mm
09:40 PM 44.1°F6.7°C 40.5°F4.7°C 87% 1.2 mph E1.9 kmh E 5.8 mph9.3 kmh 29.67 in1004.7 mb - 0.00 in0.0 mm 0.00 in0.0 mm
09:50 PM 44.1°F6.7°C 40.5°F4.7°C 87% 1.2 mph E1.9 kmh E 5.8 mph9.3 kmh 29.67 in1004.7 mb - 0.00 in0.0 mm 0.00 in0.0 mm
10:00 PM 44.2°F6.8°C 40.6°F4.8°C 87% Calm Calm 3.5 mph5.6 kmh 29.67 in1004.7 mb - 0.00 in0.0 mm 0.00 in0.0 mm
10:10 PM 44.2°F6.8°C 40.6°F4.8°C 87% Calm Calm 3.5 mph5.6 kmh 29.67 in1004.7 mb - 0.00 in0.0 mm 0.00 in0.0 mm
10:20 PM 44.2°F6.8°C 40.6°F4.8°C 87% 1.2 mph ENE1.9 kmh ENE 4.6 mph7.4 kmh 29.67 in1004.7 mb - 0.00 in0.0 mm 0.00 in0.0 mm
10:30 PM 44.3°F6.8°C 40.7°F4.8°C 87% Calm Calm 3.5 mph5.6 kmh 29.67 in1004.7 mb - 0.00 in0.0 mm 0.00 in0.0 mm
10:40 PM 44.3°F6.8°C 40.7°F4.8°C 87% Calm Calm -- 29.66 in1004.4 mb - 0.00 in0.0 mm 0.00 in0.0 mm
10:50 PM 44.4°F6.9°C 40.5°F4.7°C 86% 1.2 mph E1.9 kmh E 4.6 mph7.4 kmh 29.66 in1004.4 mb - 0.00 in0.0 mm 0.00 in0.0 mm
11:00 PM 44.4°F6.9°C 40.5°F4.7°C 86% 1.2 mph E1.9 kmh E 6.9 mph11.1 kmh 29.66 in1004.4 mb - 0.00 in0.0 mm 0.00 in0.0 mm
11:10 PM 44.3°F6.8°C 40.4°F4.7°C 86% 2.3 mph ENE3.7 kmh ENE 4.6 mph7.4 kmh 29.65 in1004.1 mb - 0.00 in0.0 mm 0.00 in0.0 mm
11:20 PM 44.3°F6.8°C 40.4°F4.7°C 86% 1.2 mph NNE1.9 kmh NNE -- 29.65 in1004.1 mb - 0.00 in0.0 mm 0.00 in0.0 mm
11:30 PM 44.2°F6.8°C 40.3°F4.6°C 86% Calm Calm 2.3 mph3.7 kmh 29.65 in1004.1 mb - 0.00 in0.0 mm 0.00 in0.0 mm
11:40 PM 44.1°F6.7°C 40.2°F4.6°C 86% Calm Calm 4.6 mph7.4 kmh 29.65 in1004.1 mb - 0.00 in0.0 mm 0.00 in0.0 mm
11:50 PM 43.9°F6.6°C 40.0°F4.4°C 86% Calm Calm 1.2 mph1.9 kmh 29.65 in1004.1 mb - 0.00 in0.0 mm 0.00 in0.0 mm